Terminal Aerodrome Forecast
Issued by NWS Paducah, KY

Home | Current Version | Previous Version | Text Only | Print | Product List | Glossary On
Versions: 1 2 3 4 5 6 7 8 9 10 11 12 13 14 15
000
FTUS43 KPAH 201903 AAC
TAFPAH
TAF AMD
KPAH 201903Z 2019/2118 VRB06KT P6SM VCTS BKN040CB
     FM202100 VRB04KT P6SM SCT045 BKN100
     FM210000 VRB02KT P6SM SCT100
     FM211400 20004KT P6SM VCTS SCT030CB=

USA.gov is the U.S. government's official web portal to all federal, state and local government web resources and services.